Terminal Aerodrome Forecast
Issued by NWS Mt. Holly, NJ

Home | Current Version | Previous Version | Text Only | Print | Product List | Glossary On
Versions: 1 2 3 4 5 6 7 8 9 10 11 12 13 14 15 16 17 18 19
000
FTUS41 KPHI 270309 AAA
TAFTTN
TAF AMD
KTTN 270309Z 2703/2724 33010KT P6SM SCT012 OVC050
      TEMPO 2703/2706 4SM -SHRA BR OVC012
     FM270600 35010KT P6SM -RA BKN025 BKN040
      TEMPO 2709/2712 2SM RA OVC008
     FM271300 35008KT P6SM SCT025 OVC100
      TEMPO 2713/2717 BKN025=

USA.gov is the U.S. government's official web portal to all federal, state and local government web resources and services.